createdAt,value
2018-12-15T00:00:55.632Z,15.73
2018-12-15T00:03:23.053Z,16.50
2018-12-15T00:05:50.491Z,14.93
2018-12-15T00:08:17.904Z,15.00
2018-12-15T00:10:45.295Z,14.90
2018-12-15T00:13:12.744Z,15.37
2018-12-15T00:15:40.130Z,14.83
2018-12-15T00:18:07.543Z,15.63
2018-12-15T00:20:34.985Z,14.97
2018-12-15T00:23:02.390Z,14.87
2018-12-15T00:25:29.875Z,15.00
2018-12-15T00:27:57.220Z,15.27
2018-12-15T00:30:24.630Z,15.90
2018-12-15T00:32:52.056Z,17.03
2018-12-15T00:35:19.455Z,14.90
2018-12-15T00:37:46.899Z,16.50
2018-12-15T00:40:14.305Z,16.17
2018-12-15T00:42:41.733Z,16.53
2018-12-15T00:45:09.153Z,16.53
2018-12-15T00:47:36.581Z,17.50
2018-12-15T00:50:04.004Z,17.70
2018-12-15T00:52:31.432Z,18.43
2018-12-15T00:54:58.838Z,16.93
2018-12-15T00:57:26.259Z,16.40
2018-12-15T00:59:53.691Z,16.20
2018-12-15T01:02:21.090Z,17.30
2018-12-15T01:04:48.515Z,17.13
2018-12-15T01:07:15.908Z,16.67
2018-12-15T01:09:43.349Z,16.87
2018-12-15T01:12:10.751Z,16.53
2018-12-15T01:14:38.186Z,17.80
2018-12-15T01:17:05.588Z,17.30
2018-12-15T01:19:33.000Z,18.30
2018-12-15T01:22:00.450Z,17.03
2018-12-15T01:24:27.870Z,18.20
2018-12-15T01:26:55.289Z,17.30
2018-12-15T01:29:22.693Z,17.20
2018-12-15T01:31:50.123Z,17.23
2018-12-15T01:34:17.525Z,18.20
2018-12-15T01:36:44.961Z,18.00
2018-12-15T01:39:12.364Z,17.37
2018-12-15T01:41:39.799Z,18.27
2018-12-15T01:44:07.203Z,18.27
2018-12-15T01:46:34.628Z,17.97
2018-12-15T01:49:02.042Z,19.07
2018-12-15T01:51:29.480Z,17.50
2018-12-15T01:53:56.885Z,17.83
2018-12-15T01:56:24.303Z,17.60
2018-12-15T01:58:51.713Z,18.90
2018-12-15T02:01:19.151Z,17.20
2018-12-15T02:03:46.577Z,16.50
2018-12-15T02:06:13.985Z,14.63
2018-12-15T02:08:41.414Z,17.77
2018-12-15T02:11:08.804Z,16.67
2018-12-15T02:13:36.217Z,17.90
2018-12-15T02:16:03.657Z,16.73
2018-12-15T02:18:31.089Z,17.30
2018-12-15T02:20:58.514Z,16.93
2018-12-15T02:23:25.911Z,17.83
2018-12-15T02:25:53.332Z,17.83
2018-12-15T02:28:20.738Z,18.03
2018-12-15T02:30:48.182Z,18.07
2018-12-15T02:33:15.620Z,17.70
2018-12-15T02:35:43.057Z,16.63
2018-12-15T02:38:10.480Z,16.73
2018-12-15T02:40:37.914Z,18.43
2018-12-15T02:43:06.170Z,16.00
2018-12-15T02:45:33.596Z,17.43
2018-12-15T02:48:01.014Z,18.17
2018-12-15T02:50:28.442Z,18.73
2018-12-15T02:52:55.858Z,17.40
2018-12-15T02:55:23.282Z,18.43
2018-12-15T02:57:50.702Z,17.63
2018-12-15T03:00:18.119Z,17.43
2018-12-15T03:02:45.529Z,16.63
2018-12-15T03:05:12.953Z,17.53
2018-12-15T03:07:40.361Z,17.53
2018-12-15T03:10:07.820Z,18.07
2018-12-15T03:12:35.225Z,18.03
2018-12-15T03:15:02.637Z,17.13
2018-12-15T03:17:30.097Z,18.93
2018-12-15T03:19:57.496Z,17.97
2018-12-15T03:22:24.927Z,17.63
2018-12-15T03:24:52.357Z,17.83
2018-12-15T03:27:19.772Z,17.63
2018-12-15T03:29:47.183Z,18.40
2018-12-15T03:32:14.603Z,18.50
2018-12-15T03:34:42.030Z,18.63
2018-12-15T03:37:09.481Z,19.73
2018-12-15T03:39:36.900Z,17.80
2018-12-15T03:42:04.330Z,18.60
2018-12-15T03:44:31.751Z,18.47
2018-12-15T03:46:59.178Z,17.90
2018-12-15T03:49:26.611Z,19.37
2018-12-15T03:51:54.041Z,18.50
2018-12-15T03:54:21.460Z,18.70
2018-12-15T03:56:48.882Z,18.80
2018-12-15T03:59:16.276Z,18.60
2018-12-15T04:01:43.696Z,19.83
2018-12-15T04:04:11.106Z,18.87
2018-12-15T04:06:38.536Z,18.67
2018-12-15T04:09:05.949Z,18.37
2018-12-15T04:11:33.376Z,18.10
2018-12-15T04:14:00.790Z,18.97
2018-12-15T04:16:28.215Z,18.63
2018-12-15T04:18:55.641Z,17.93
2018-12-15T04:21:23.082Z,18.93
2018-12-15T04:23:50.524Z,17.93
2018-12-15T04:26:17.933Z,19.23
2018-12-15T04:28:45.362Z,17.57
2018-12-15T04:31:12.774Z,18.07
2018-12-15T04:33:40.201Z,15.93
2018-12-15T04:36:10.143Z,14.63
2018-12-15T04:38:37.597Z,16.90
2018-12-15T04:41:04.974Z,17.07
2018-12-15T04:43:32.379Z,18.33
2018-12-15T04:45:59.822Z,18.67
2018-12-15T04:48:27.221Z,19.23
2018-12-15T04:50:54.665Z,19.00
2018-12-15T04:53:22.114Z,18.87
2018-12-15T04:55:49.528Z,17.80
2018-12-15T04:58:16.956Z,18.33
2018-12-15T05:00:44.387Z,15.33
2018-12-15T05:03:11.836Z,18.13
2018-12-15T05:05:39.229Z,19.63
2018-12-15T05:08:06.696Z,19.20
2018-12-15T05:10:34.086Z,20.07
2018-12-15T05:13:01.592Z,20.47
2018-12-15T05:15:28.997Z,19.07
2018-12-15T05:17:56.395Z,20.07
2018-12-15T05:20:23.812Z,19.10
2018-12-15T05:22:51.241Z,19.20
2018-12-15T05:25:18.646Z,19.00
2018-12-15T05:27:46.092Z,19.47
2018-12-15T05:30:13.522Z,18.97
2018-12-15T05:32:40.937Z,18.20
2018-12-15T05:35:08.369Z,18.53
2018-12-15T05:37:35.795Z,18.10
2018-12-15T05:40:03.201Z,18.10
2018-12-15T05:42:30.607Z,18.23
2018-12-15T05:44:58.047Z,17.47
2018-12-15T05:47:25.445Z,17.87
2018-12-15T05:49:52.869Z,16.27
2018-12-15T05:52:20.287Z,17.40
2018-12-15T05:54:47.709Z,17.27
2018-12-15T05:57:15.109Z,16.23
2018-12-15T05:59:42.536Z,17.13
2018-12-15T06:02:09.946Z,15.83
2018-12-15T06:04:37.361Z,16.77
2018-12-15T06:07:04.766Z,17.07
2018-12-15T06:09:32.162Z,17.40
2018-12-15T06:11:59.587Z,16.13
2018-12-15T06:14:26.981Z,15.70
2018-12-15T06:16:54.403Z,16.90
2018-12-15T06:19:21.805Z,16.40
2018-12-15T06:21:49.257Z,16.30
2018-12-15T06:24:16.655Z,15.43
2018-12-15T06:26:44.058Z,16.37
2018-12-15T06:29:11.493Z,15.53
2018-12-15T06:31:38.894Z,14.73
2018-12-15T06:34:06.324Z,15.93
2018-12-15T06:36:33.717Z,15.87
2018-12-15T06:39:01.135Z,15.80
2018-12-15T06:41:28.532Z,16.73
2018-12-15T06:43:55.964Z,15.53
2018-12-15T06:46:23.476Z,15.53
2018-12-15T06:48:50.882Z,15.13
2018-12-15T06:51:18.279Z,15.87
2018-12-15T06:53:45.719Z,15.93
2018-12-15T06:56:13.114Z,16.53
2018-12-15T06:58:40.555Z,15.83
2018-12-15T07:01:08.009Z,16.90
2018-12-15T07:03:35.404Z,16.33
2018-12-15T07:06:02.817Z,16.87
2018-12-15T07:08:30.253Z,16.20
2018-12-15T07:10:57.677Z,15.43
2018-12-15T07:13:25.100Z,15.77
2018-12-15T07:15:52.518Z,16.10
2018-12-15T07:18:19.927Z,15.60
2018-12-15T07:20:47.355Z,16.43
2018-12-15T07:23:14.802Z,15.77
2018-12-15T07:25:42.241Z,16.47
2018-12-15T07:28:09.645Z,16.17
2018-12-15T07:30:37.077Z,15.40
2018-12-15T07:33:04.474Z,15.97
2018-12-15T07:35:31.902Z,16.97
2018-12-15T07:37:59.327Z,16.30
2018-12-15T07:40:26.725Z,15.97
2018-12-15T07:42:54.149Z,16.47
2018-12-15T07:45:21.552Z,15.97
2018-12-15T07:47:48.994Z,16.50
2018-12-15T07:50:16.395Z,17.63
2018-12-15T07:52:43.837Z,15.30
2018-12-15T07:55:11.237Z,16.37
2018-12-15T07:57:38.655Z,16.90
2018-12-15T08:00:06.100Z,15.10
2018-12-15T08:02:33.504Z,16.20
2018-12-15T08:05:00.944Z,16.67
2018-12-15T08:07:28.349Z,15.80
2018-12-15T08:09:55.788Z,16.77
2018-12-15T08:12:38.467Z,16.57
2018-12-15T08:15:05.890Z,16.57
2018-12-15T08:17:33.286Z,16.70
2018-12-15T08:20:01.764Z,16.23
2018-12-15T08:22:29.178Z,15.67
2018-12-15T08:24:56.597Z,16.03
2018-12-15T08:27:23.998Z,15.90
2018-12-15T08:29:51.397Z,16.40
2018-12-15T08:32:18.843Z,16.00
2018-12-15T08:34:46.279Z,16.47
2018-12-15T08:37:13.722Z,16.60
2018-12-15T08:39:41.126Z,16.70
2018-12-15T08:42:08.552Z,16.43
2018-12-15T08:44:35.969Z,16.30
2018-12-15T08:47:03.384Z,16.87
2018-12-15T08:49:30.804Z,16.10
2018-12-15T08:51:58.209Z,16.80
2018-12-15T08:54:25.632Z,17.60
2018-12-15T08:56:53.060Z,16.23
2018-12-15T08:59:20.459Z,16.83
2018-12-15T09:01:47.893Z,16.57
2018-12-15T09:04:15.303Z,16.83
2018-12-15T09:06:42.731Z,17.33
2018-12-15T09:09:10.154Z,16.30
2018-12-15T09:11:37.589Z,17.20
2018-12-15T09:14:05.028Z,20.00
2018-12-15T09:16:32.427Z,22.67
2018-12-15T09:18:59.860Z,26.43
2018-12-15T09:21:27.266Z,26.13
2018-12-15T09:23:54.696Z,20.80
2018-12-15T09:26:22.115Z,18.27
2018-12-15T09:28:49.543Z,18.57
2018-12-15T09:31:16.953Z,19.57
2018-12-15T09:33:44.355Z,20.73
2018-12-15T09:36:11.790Z,21.20
2018-12-15T09:38:39.227Z,19.90
2018-12-15T09:41:06.635Z,20.20
2018-12-15T09:43:34.064Z,19.43
2018-12-15T09:46:01.491Z,19.30
2018-12-15T09:48:28.916Z,19.60
2018-12-15T09:50:56.337Z,20.10
2018-12-15T09:53:23.752Z,18.50
2018-12-15T09:55:51.196Z,18.30
2018-12-15T09:58:18.610Z,17.87
2018-12-15T10:00:46.042Z,18.13
2018-12-15T10:03:13.460Z,17.80
2018-12-15T10:05:40.895Z,18.70
2018-12-15T10:08:08.345Z,17.73
2018-12-15T10:10:35.746Z,17.13
2018-12-15T10:13:03.191Z,17.13
2018-12-15T10:15:30.614Z,19.17
2018-12-15T10:17:58.041Z,19.40
2018-12-15T10:20:25.474Z,17.67
2018-12-15T10:22:52.882Z,19.17
2018-12-15T10:25:20.315Z,18.17
2018-12-15T10:27:47.720Z,17.97
2018-12-15T10:30:33.631Z,18.00
2018-12-15T10:33:01.055Z,18.30
2018-12-15T10:35:28.499Z,18.20
2018-12-15T10:37:55.909Z,19.23
2018-12-15T10:40:23.347Z,18.13
2018-12-15T10:42:50.755Z,17.70
2018-12-15T10:45:18.168Z,17.80
2018-12-15T10:47:45.600Z,17.80
2018-12-15T10:50:13.001Z,17.50
2018-12-15T10:52:40.435Z,17.70
2018-12-15T10:55:07.833Z,18.47
2018-12-15T10:57:35.273Z,18.17
2018-12-15T11:00:02.684Z,18.10
2018-12-15T11:02:30.143Z,19.47
2018-12-15T11:04:57.597Z,19.03
2018-12-15T11:07:25.008Z,18.43
2018-12-15T11:09:52.443Z,17.40
2018-12-15T11:12:19.856Z,17.40
2018-12-15T11:14:47.295Z,18.90
2018-12-15T11:17:14.697Z,17.90
2018-12-15T11:19:42.164Z,18.07
2018-12-15T11:22:09.584Z,17.57
2018-12-15T11:24:37.001Z,18.13
2018-12-15T11:27:04.451Z,18.87
2018-12-15T11:29:31.879Z,18.73
2018-12-15T11:31:59.319Z,17.87
2018-12-15T11:34:26.732Z,18.63
2018-12-15T11:36:54.159Z,18.03
2018-12-15T11:39:21.571Z,19.80
2018-12-15T11:41:49.014Z,19.17
2018-12-15T11:44:16.448Z,18.40
2018-12-15T11:46:43.890Z,19.57
2018-12-15T11:49:11.309Z,20.30
2018-12-15T11:51:38.721Z,19.23
2018-12-15T11:54:06.172Z,19.13
2018-12-15T11:56:33.586Z,18.37
2018-12-15T11:59:01.865Z,18.40
2018-12-15T12:01:29.344Z,18.87
2018-12-15T12:03:56.804Z,18.40
2018-12-15T12:06:24.212Z,19.70
2018-12-15T12:08:51.680Z,18.47
2018-12-15T12:11:19.120Z,18.23
2018-12-15T12:13:46.875Z,18.87
2018-12-15T12:16:14.282Z,17.87
2018-12-15T12:18:41.706Z,18.27
2018-12-15T12:21:09.170Z,19.27
2018-12-15T12:23:36.587Z,18.37
2018-12-15T12:26:04.032Z,17.07
2018-12-15T12:28:31.494Z,17.73
2018-12-15T12:30:58.909Z,17.40
2018-12-15T12:33:26.365Z,18.67
2018-12-15T12:35:53.774Z,18.70
2018-12-15T12:38:21.209Z,18.13
2018-12-15T12:40:48.655Z,18.90
2018-12-15T12:43:16.075Z,18.13
2018-12-15T12:45:43.531Z,18.60
2018-12-15T12:48:10.949Z,20.17
2018-12-15T12:50:38.404Z,24.33
2018-12-15T12:53:05.812Z,18.70
2018-12-15T12:55:33.321Z,18.33
2018-12-15T12:58:00.752Z,18.50
2018-12-15T13:00:28.224Z,20.10
2018-12-15T13:02:55.657Z,18.77
2018-12-15T13:05:23.068Z,18.07
2018-12-15T13:07:50.540Z,17.57
2018-12-15T13:10:17.989Z,18.97
2018-12-15T13:15:27.451Z,18.57
2018-12-15T13:17:54.940Z,18.13
2018-12-15T13:20:22.343Z,17.77
2018-12-15T13:22:49.802Z,17.53
2018-12-15T13:25:17.261Z,18.70
2018-12-15T13:27:44.735Z,17.20
2018-12-15T13:30:12.116Z,18.23
2018-12-15T13:32:39.560Z,17.57
2018-12-15T13:35:07.077Z,19.43
2018-12-15T13:37:34.523Z,18.50
2018-12-15T13:40:01.952Z,19.20
2018-12-15T13:42:29.349Z,20.70
2018-12-15T13:44:56.799Z,17.97
2018-12-15T13:47:26.980Z,19.90
2018-12-15T13:49:54.593Z,17.67
2018-12-15T13:52:22.031Z,21.13
2018-12-15T13:54:49.466Z,18.90
2018-12-15T13:57:16.888Z,18.10
2018-12-15T13:59:44.332Z,20.53
2018-12-15T14:02:12.020Z,20.30
2018-12-15T14:04:39.270Z,20.53
2018-12-15T14:07:06.712Z,20.43
2018-12-15T14:09:34.152Z,21.07
2018-12-15T14:12:01.573Z,21.87
2018-12-15T14:14:29.010Z,22.07
2018-12-15T14:16:56.422Z,22.57
2018-12-15T14:19:23.871Z,26.00
2018-12-15T14:21:51.314Z,24.17
2018-12-15T14:24:18.827Z,23.67
2018-12-15T14:26:46.209Z,24.37
2018-12-15T14:29:13.629Z,21.33
2018-12-15T14:31:41.088Z,22.37
2018-12-15T14:34:08.509Z,23.20
2018-12-15T14:36:35.956Z,23.40
2018-12-15T14:39:03.402Z,22.37
2018-12-15T14:41:30.854Z,20.53
2018-12-15T14:43:58.249Z,21.57
2018-12-15T14:46:25.935Z,20.57
2018-12-15T14:48:53.414Z,19.73
2018-12-15T14:51:20.854Z,20.97
2018-12-15T14:53:48.292Z,21.37
2018-12-15T14:56:15.795Z,21.50
2018-12-15T14:58:43.320Z,22.73
2018-12-15T15:01:10.762Z,22.90
2018-12-15T15:03:38.189Z,22.03
2018-12-15T15:06:05.591Z,21.27
2018-12-15T15:08:33.182Z,20.53
2018-12-15T15:11:00.611Z,19.50
2018-12-15T15:13:34.293Z,19.57
2018-12-15T15:15:55.439Z,20.50
2018-12-15T15:18:22.888Z,20.20
2018-12-15T15:20:50.326Z,19.13
2018-12-15T15:23:17.762Z,19.80
2018-12-15T15:25:45.151Z,19.80
2018-12-15T15:28:12.596Z,19.37
2018-12-15T15:30:40.023Z,18.40
2018-12-15T15:33:07.455Z,17.43
2018-12-15T15:35:34.907Z,18.27
2018-12-15T15:38:02.327Z,17.30
2018-12-15T15:40:29.815Z,19.73
2018-12-15T15:42:57.255Z,19.83
2018-12-15T15:45:24.760Z,18.47
2018-12-15T15:47:52.167Z,20.30
2018-12-15T15:50:19.587Z,21.85
2018-12-15T15:52:47.020Z,18.33
2018-12-15T15:55:14.434Z,18.17
2018-12-15T15:57:41.857Z,19.37
2018-12-15T16:00:09.285Z,17.73
2018-12-15T16:02:36.744Z,18.43
2018-12-15T16:05:04.183Z,17.97
2018-12-15T16:07:31.616Z,19.80
2018-12-15T16:09:59.119Z,18.43
2018-12-15T16:12:26.589Z,18.93
2018-12-15T16:14:54.012Z,18.87
2018-12-15T16:17:21.460Z,18.83
2018-12-15T16:19:48.892Z,19.63
2018-12-15T16:22:16.761Z,18.40
2018-12-15T16:24:43.755Z,20.00
2018-12-15T16:27:11.181Z,19.43
2018-12-15T16:29:38.640Z,19.97
2018-12-15T16:32:06.096Z,19.53
2018-12-15T16:34:33.615Z,19.10
2018-12-15T16:37:01.022Z,18.27
2018-12-15T16:39:28.476Z,19.43
2018-12-15T16:41:55.931Z,19.33
2018-12-15T16:44:23.354Z,19.73
2018-12-15T16:46:50.866Z,19.87
2018-12-15T16:49:18.336Z,19.50
2018-12-15T16:51:45.775Z,19.67
2018-12-15T16:54:13.201Z,20.17
2018-12-15T16:56:40.785Z,18.83
2018-12-15T16:59:08.200Z,20.03
2018-12-15T17:01:35.651Z,20.23
2018-12-15T17:04:03.079Z,20.33
2018-12-15T17:06:30.525Z,20.43
2018-12-15T17:08:57.943Z,19.60
2018-12-15T17:11:25.383Z,19.83
2018-12-15T17:13:52.822Z,19.93
2018-12-15T17:16:20.228Z,21.17
2018-12-15T17:18:47.657Z,22.23
2018-12-15T17:21:15.085Z,18.93
2018-12-15T17:23:42.513Z,21.17
2018-12-15T17:26:09.933Z,19.90
2018-12-15T17:28:37.361Z,18.87
2018-12-15T17:31:04.865Z,19.67
2018-12-15T17:33:32.319Z,20.13
2018-12-15T17:35:59.765Z,19.83
2018-12-15T17:38:27.251Z,19.50
2018-12-15T17:40:54.644Z,18.90
2018-12-15T17:43:22.065Z,19.97
2018-12-15T17:45:49.498Z,19.77
2018-12-15T17:48:16.970Z,20.43
2018-12-15T17:50:44.371Z,20.47
2018-12-15T17:53:11.869Z,19.27
2018-12-15T17:55:39.289Z,19.83
2018-12-15T17:58:14.550Z,20.13
2018-12-15T18:00:35.748Z,20.97
2018-12-15T18:03:03.203Z,21.20
2018-12-15T18:05:30.680Z,20.30
2018-12-15T18:07:58.143Z,20.53
2018-12-15T18:10:25.497Z,21.13
2018-12-15T18:12:52.918Z,20.40
2018-12-15T18:15:20.398Z,20.83
2018-12-15T18:17:47.826Z,20.27
2018-12-15T18:20:15.359Z,20.20
2018-12-15T18:22:42.779Z,19.30
2018-12-15T18:25:10.216Z,20.83
2018-12-15T18:27:38.171Z,21.00
2018-12-15T18:30:05.631Z,19.70
2018-12-15T18:32:33.176Z,21.60
2018-12-15T18:35:00.601Z,19.63
2018-12-15T18:37:28.010Z,21.23
2018-12-15T18:39:55.449Z,20.30
2018-12-15T18:42:22.881Z,20.53
2018-12-15T18:44:50.376Z,21.33
2018-12-15T18:47:17.788Z,21.13
2018-12-15T18:49:45.227Z,21.37
2018-12-15T18:52:12.649Z,21.00
2018-12-15T18:54:40.091Z,21.10
2018-12-15T18:57:07.519Z,21.27
2018-12-15T18:59:34.969Z,19.63
2018-12-15T19:02:02.396Z,21.57
2018-12-15T19:04:29.797Z,19.97
2018-12-15T19:06:57.234Z,21.30
2018-12-15T19:09:24.704Z,20.77
2018-12-15T19:11:52.225Z,19.77
2018-12-15T19:14:19.631Z,20.70
2018-12-15T19:16:47.100Z,19.93
2018-12-15T19:19:14.473Z,20.80
2018-12-15T19:21:41.913Z,21.60
2018-12-15T19:24:17.038Z,21.07
2018-12-15T19:26:42.862Z,21.47
2018-12-15T19:29:10.321Z,20.93
2018-12-15T19:31:37.743Z,22.13
2018-12-15T19:34:05.175Z,21.13
2018-12-15T19:36:32.586Z,21.03
2018-12-15T19:39:00.075Z,20.97
2018-12-15T19:41:27.486Z,21.17
2018-12-15T19:43:54.909Z,20.53
2018-12-15T19:46:22.341Z,21.03
2018-12-15T19:48:49.788Z,20.70
2018-12-15T19:51:17.186Z,20.17
2018-12-15T19:53:44.595Z,21.13
2018-12-15T19:56:12.050Z,18.80
2018-12-15T19:58:39.457Z,21.23
2018-12-15T20:01:06.899Z,20.73
2018-12-15T20:03:34.354Z,21.17
2018-12-15T20:06:01.732Z,21.17
2018-12-15T20:08:29.162Z,21.40
2018-12-15T20:10:56.591Z,19.67
2018-12-15T20:13:24.029Z,20.50
2018-12-15T20:15:51.433Z,20.57
2018-12-15T20:18:19.326Z,19.80
2018-12-15T20:20:46.863Z,20.23
2018-12-15T20:23:14.306Z,19.07
2018-12-15T20:25:41.713Z,19.70
2018-12-15T20:28:09.148Z,19.33
2018-12-15T20:30:36.568Z,18.43
2018-12-15T20:33:04.067Z,19.73
2018-12-15T20:35:31.497Z,19.67
2018-12-15T20:37:58.939Z,21.03
2018-12-15T20:40:26.386Z,20.77
2018-12-15T20:42:53.825Z,19.00
2018-12-15T20:45:21.250Z,20.43
2018-12-15T20:47:48.659Z,21.60
2018-12-15T20:50:16.250Z,20.43
2018-12-15T20:52:47.577Z,21.00
2018-12-15T20:55:16.820Z,20.57
2018-12-15T20:57:46.651Z,21.17
2018-12-15T21:00:14.189Z,20.47
2018-12-15T21:02:41.616Z,20.57
2018-12-15T21:05:13.876Z,19.33
2018-12-15T21:07:39.305Z,22.33
2018-12-15T21:10:06.747Z,22.03
2018-12-15T21:12:34.176Z,20.00
2018-12-15T21:15:01.587Z,23.83
2018-12-15T21:17:29.011Z,21.50
2018-12-15T21:19:56.445Z,22.47
2018-12-15T21:22:23.865Z,26.37
2018-12-15T21:24:51.295Z,22.87
2018-12-15T21:27:18.704Z,24.17
2018-12-15T21:29:46.144Z,23.70
2018-12-15T21:32:16.832Z,24.80
2018-12-15T21:34:44.264Z,24.03
2018-12-15T21:37:11.704Z,24.97
2018-12-15T21:39:39.157Z,26.30
2018-12-15T21:42:06.607Z,26.63
2018-12-15T21:44:34.018Z,25.83
2018-12-15T21:47:01.443Z,27.07
2018-12-15T21:49:28.875Z,26.77
2018-12-15T21:51:56.580Z,26.77
2018-12-15T21:54:23.724Z,27.23
2018-12-15T21:56:51.162Z,26.07
2018-12-15T21:59:18.575Z,28.63
2018-12-15T22:01:46.000Z,26.90
2018-12-15T22:04:13.430Z,30.07
2018-12-15T22:06:40.881Z,28.27
2018-12-15T22:09:08.292Z,28.43
2018-12-15T22:11:35.717Z,27.53
2018-12-15T22:14:03.274Z,27.33
2018-12-15T22:16:31.715Z,26.93
2018-12-15T22:18:57.995Z,26.33
2018-12-15T22:21:25.407Z,28.40
2018-12-15T22:23:52.860Z,29.03
2018-12-15T22:26:20.285Z,27.17
2018-12-15T22:28:47.712Z,27.80
2018-12-15T22:31:17.567Z,24.97
2018-12-15T22:33:44.987Z,28.77
2018-12-15T22:36:12.399Z,28.13
2018-12-15T22:38:39.837Z,30.07
2018-12-15T22:41:07.254Z,30.10
2018-12-15T22:43:34.685Z,29.00
2018-12-15T22:46:02.133Z,28.43
2018-12-15T22:48:29.543Z,31.60
2018-12-15T22:50:56.975Z,31.27
2018-12-15T22:53:24.381Z,31.37
2018-12-15T22:55:51.813Z,30.87
2018-12-15T22:58:19.269Z,31.13
2018-12-15T23:01:04.890Z,28.97
2018-12-15T23:03:32.318Z,32.40
2018-12-15T23:05:59.731Z,30.83
2018-12-15T23:08:27.164Z,31.83
2018-12-15T23:10:54.572Z,31.80
2018-12-15T23:13:22.008Z,30.57
2018-12-15T23:15:49.417Z,28.10
2018-12-15T23:18:16.859Z,30.17
2018-12-15T23:20:44.266Z,32.93
2018-12-15T23:23:11.717Z,29.80
2018-12-15T23:25:39.135Z,31.67
2018-12-15T23:28:06.552Z,32.17
2018-12-15T23:30:33.997Z,32.87
2018-12-15T23:33:01.515Z,31.23
2018-12-15T23:35:28.885Z,32.40
2018-12-15T23:37:56.329Z,32.13
2018-12-15T23:40:23.762Z,32.43
2018-12-15T23:42:51.175Z,32.63
2018-12-15T23:45:18.609Z,33.10
2018-12-15T23:47:46.052Z,34.20
2018-12-15T23:50:13.466Z,31.37
2018-12-15T23:52:40.877Z,34.87
2018-12-15T23:55:08.369Z,35.60
2018-12-15T23:57:35.779Z,35.50
